createdAt,value
2019-03-13T00:07:20.193Z,97.30
2019-03-13T00:12:15.678Z,97.60
2019-03-13T00:17:10.136Z,97.60
2019-03-13T00:22:05.535Z,97.60
2019-03-13T00:27:01.692Z,97.10
2019-03-13T00:31:59.577Z,97.00
2019-03-13T00:36:55.833Z,96.40
2019-03-13T00:41:53.374Z,96.10
2019-03-13T00:51:43.539Z,95.80
2019-03-13T00:56:38.008Z,96.00
2019-03-13T01:01:46.600Z,96.40
2019-03-13T01:06:44.314Z,96.00
2019-03-13T01:11:39.016Z,96.60
2019-03-13T01:16:33.518Z,97.00
2019-03-13T01:21:28.056Z,96.50
2019-03-13T01:26:23.350Z,96.20
2019-03-13T01:31:23.121Z,96.80
2019-03-13T01:36:17.736Z,96.70
2019-03-13T01:41:12.263Z,96.40
2019-03-13T01:46:06.371Z,97.00
2019-03-13T01:51:01.078Z,96.50
2019-03-13T01:55:55.531Z,96.00
2019-03-13T02:00:50.593Z,96.70
2019-03-13T02:05:45.021Z,96.70
2019-03-13T02:10:41.002Z,96.40
2019-03-13T02:15:35.742Z,96.20
2019-03-13T02:20:30.831Z,97.10
2019-03-13T02:25:25.575Z,96.50
2019-03-13T02:30:24.138Z,98.40
2019-03-13T02:35:18.543Z,99.90
2019-03-13T02:40:18.597Z,99.90
2019-03-13T02:45:14.332Z,99.90
2019-03-13T02:50:11.654Z,99.90
2019-03-13T02:55:07.970Z,99.90
2019-03-13T03:00:03.702Z,99.90
2019-03-13T03:04:58.367Z,99.90
2019-03-13T03:09:53.385Z,99.90
2019-03-13T03:15:01.687Z,99.90
2019-03-13T03:19:56.071Z,99.90
2019-03-13T03:24:51.343Z,99.90
2019-03-13T03:29:46.608Z,99.90
2019-03-13T03:34:41.159Z,99.90
2019-03-13T03:39:35.513Z,99.90
2019-03-13T03:49:27.951Z,99.90
2019-03-13T03:54:23.017Z,99.90
2019-03-13T03:59:17.656Z,99.90
2019-03-13T04:04:13.095Z,99.90
2019-03-13T04:09:09.207Z,99.90
2019-03-13T04:14:05.024Z,99.90
2019-03-13T04:18:59.722Z,99.90
2019-03-13T04:23:54.205Z,99.90
2019-03-13T04:28:49.202Z,99.90
2019-03-13T04:33:43.766Z,99.90
2019-03-13T04:38:41.668Z,99.90
2019-03-13T04:43:37.754Z,99.90
2019-03-13T04:48:32.764Z,99.90
2019-03-13T04:53:26.880Z,99.90
2019-03-13T04:58:22.131Z,99.90
2019-03-13T05:03:16.223Z,99.90
2019-03-13T05:13:07.384Z,99.90
2019-03-13T05:18:01.567Z,99.90
2019-03-13T05:23:00.969Z,99.90
2019-03-13T05:27:55.692Z,99.90
2019-03-13T05:32:54.216Z,99.90
2019-03-13T05:37:48.619Z,99.90
2019-03-13T05:42:45.219Z,99.90
2019-03-13T05:47:39.851Z,99.90
2019-03-13T06:02:23.638Z,99.90
2019-03-13T06:07:18.264Z,99.90
2019-03-13T06:12:13.231Z,99.90
2019-03-13T06:17:09.769Z,99.90
2019-03-13T06:22:06.039Z,99.90
2019-03-13T06:27:13.938Z,99.90
2019-03-13T06:32:09.230Z,99.90
2019-03-13T06:37:05.191Z,99.90
2019-03-13T06:41:59.726Z,99.90
2019-03-13T06:46:56.965Z,99.50
2019-03-13T06:51:52.155Z,99.90
2019-03-13T06:56:46.513Z,93.90
2019-03-13T07:01:43.142Z,73.60
2019-03-13T07:06:41.588Z,56.40
2019-03-13T07:11:48.309Z,48.10
2019-03-13T07:16:44.552Z,44.80
2019-03-13T07:22:00.284Z,40.10
2019-03-13T07:27:02.742Z,38.40
2019-03-13T07:32:16.788Z,35.10
2019-03-13T07:42:40.144Z,31.60
2019-03-13T07:47:54.349Z,30.60
2019-03-13T07:52:56.702Z,29.50
2019-03-13T07:57:52.725Z,28.90
2019-03-13T08:02:49.269Z,28.40
2019-03-13T08:08:04.864Z,28.00
2019-03-13T08:13:07.960Z,27.10
2019-03-13T08:18:11.335Z,26.20
2019-03-13T08:23:21.838Z,26.30
2019-03-13T08:28:18.011Z,25.50
2019-03-13T08:33:33.899Z,24.90
2019-03-13T08:38:47.156Z,25.20
2019-03-13T08:43:49.147Z,24.80
2019-03-13T08:59:05.631Z,28.80
2019-03-13T09:04:01.781Z,31.50
2019-03-13T09:08:59.038Z,33.40
2019-03-13T09:14:00.840Z,34.20
2019-03-13T09:24:00.881Z,30.20
2019-03-13T09:29:01.924Z,28.80
2019-03-13T09:34:12.000Z,26.90
2019-03-13T09:39:30.809Z,27.40
2019-03-13T09:44:26.821Z,33.00
2019-03-13T09:49:23.637Z,38.50
2019-03-13T09:59:42.727Z,44.50
2019-03-13T10:04:33.623Z,49.90
2019-03-13T10:09:36.551Z,53.00
2019-03-13T10:14:35.662Z,53.60
2019-03-13T10:19:52.763Z,53.90
2019-03-13T10:24:49.714Z,57.10
2019-03-13T10:29:46.165Z,51.80
2019-03-13T10:34:45.154Z,44.40
2019-03-13T10:39:53.879Z,40.80
2019-03-13T10:45:06.785Z,46.70
2019-03-13T10:50:08.523Z,49.40
2019-03-13T10:55:18.465Z,44.80
2019-03-13T11:00:21.674Z,39.40
2019-03-13T11:05:29.500Z,40.50
2019-03-13T11:10:25.481Z,47.80
2019-03-13T11:15:21.643Z,51.30
2019-03-13T11:20:27.075Z,54.00
2019-03-13T11:25:31.247Z,54.00
2019-03-13T11:30:42.078Z,55.20
2019-03-13T11:35:52.346Z,59.10
2019-03-13T11:40:54.024Z,61.50
2019-03-13T11:46:08.461Z,65.80
2019-03-13T11:51:05.974Z,73.10
2019-03-13T11:56:07.347Z,73.80
2019-03-13T12:01:03.587Z,61.60
2019-03-13T12:06:05.795Z,56.30
2019-03-13T12:11:04.268Z,57.10
2019-03-13T12:16:00.525Z,57.90
2019-03-13T12:21:13.650Z,60.50
2019-03-13T12:26:09.890Z,65.20
2019-03-13T12:31:10.039Z,68.60
2019-03-13T12:36:12.412Z,68.00
2019-03-13T12:41:09.926Z,69.60
2019-03-13T12:46:10.291Z,69.40
2019-03-13T12:51:14.164Z,74.40
2019-03-13T12:56:13.379Z,73.90
2019-03-13T13:01:10.805Z,80.60
2019-03-13T13:06:24.917Z,74.70
2019-03-13T13:11:25.144Z,79.30
2019-03-13T13:16:27.634Z,82.90
2019-03-13T13:21:22.169Z,75.70
2019-03-13T13:26:16.936Z,80.50
2019-03-13T13:31:11.920Z,75.50
2019-03-13T13:36:08.122Z,79.20
2019-03-13T13:41:04.029Z,75.00
2019-03-13T13:46:05.773Z,66.90
2019-03-13T13:51:00.048Z,60.00
2019-03-13T13:55:55.746Z,63.30
2019-03-13T14:00:50.087Z,62.20
2019-03-13T14:05:47.071Z,62.60
2019-03-13T14:10:41.553Z,61.60
2019-03-13T14:15:37.028Z,60.40
2019-03-13T14:20:31.447Z,61.40
2019-03-13T14:25:26.370Z,65.70
2019-03-13T14:30:24.557Z,61.40
2019-03-13T14:35:19.841Z,68.20
2019-03-13T14:40:19.895Z,64.60
2019-03-13T14:45:22.502Z,66.40
2019-03-13T14:50:19.983Z,65.60
2019-03-13T14:55:17.444Z,61.70
2019-03-13T15:00:17.390Z,68.40
2019-03-13T15:05:12.400Z,71.50
2019-03-13T15:10:09.690Z,75.30
2019-03-13T15:20:01.988Z,78.00
2019-03-13T15:25:15.719Z,81.80
2019-03-13T15:30:15.717Z,83.60
2019-03-13T15:35:13.668Z,89.20
2019-03-13T15:40:06.799Z,86.30
2019-03-13T15:45:01.728Z,82.60
2019-03-13T15:49:56.594Z,90.40
2019-03-13T15:59:46.780Z,86.70
2019-03-13T16:04:41.679Z,87.50
2019-03-13T16:09:36.539Z,86.20
2019-03-13T16:14:32.078Z,90.30
2019-03-13T16:19:27.642Z,86.30
2019-03-13T16:24:23.481Z,89.30
2019-03-13T16:29:24.170Z,90.00
2019-03-13T16:34:21.139Z,91.00
2019-03-13T16:39:32.369Z,91.20
2019-03-13T16:44:24.427Z,91.70
2019-03-13T16:49:21.723Z,91.70
2019-03-13T16:54:19.780Z,92.20
2019-03-13T16:59:20.131Z,92.60
2019-03-13T17:04:12.757Z,92.20
2019-03-13T17:09:08.611Z,92.90
2019-03-13T17:14:04.363Z,93.20
2019-03-13T17:19:00.919Z,93.30
2019-03-13T17:23:55.062Z,92.50
2019-03-13T17:28:50.464Z,93.20
2019-03-13T17:33:49.437Z,92.80
2019-03-13T17:38:52.143Z,93.30
2019-03-13T17:43:49.931Z,92.70
2019-03-13T17:48:46.996Z,94.80
2019-03-13T17:53:44.397Z,92.90
2019-03-13T17:58:39.552Z,94.00
2019-03-13T18:03:37.640Z,93.70
2019-03-13T18:08:34.994Z,93.90
2019-03-13T18:13:32.373Z,93.20
2019-03-13T18:18:27.181Z,93.30
2019-03-13T18:23:21.416Z,94.50
2019-03-13T18:28:18.434Z,94.20
2019-03-13T18:33:15.625Z,94.10
2019-03-13T18:38:12.020Z,94.50
2019-03-13T18:43:07.923Z,95.10
2019-03-13T18:48:06.817Z,95.00
2019-03-13T18:53:05.236Z,95.80
2019-03-13T18:57:59.626Z,96.10
2019-03-13T19:02:56.906Z,97.20
2019-03-13T19:07:51.503Z,96.90
2019-03-13T19:12:49.545Z,97.20
2019-03-13T19:17:43.791Z,97.20
2019-03-13T19:22:39.901Z,97.80
2019-03-13T19:27:36.994Z,98.00
2019-03-13T19:32:37.285Z,98.90
2019-03-13T19:37:33.491Z,98.70
2019-03-13T19:42:29.833Z,99.00
2019-03-13T19:47:25.689Z,99.90
2019-03-13T19:52:24.679Z,99.90
2019-03-13T19:57:20.459Z,99.90
2019-03-13T20:02:20.872Z,99.90
2019-03-13T20:07:15.146Z,99.90
2019-03-13T20:12:14.385Z,99.90
2019-03-13T20:17:16.588Z,99.90
2019-03-13T20:22:13.339Z,99.90
2019-03-13T20:27:13.695Z,99.90
2019-03-13T20:32:09.586Z,99.90
2019-03-13T20:37:06.852Z,99.90
2019-03-13T20:42:03.627Z,99.90
2019-03-13T20:46:57.897Z,99.90
2019-03-13T20:52:04.725Z,99.90
2019-03-13T20:57:04.263Z,99.90
2019-03-13T21:02:00.245Z,99.90
2019-03-13T21:06:56.444Z,99.90
2019-03-13T21:11:53.985Z,99.90
2019-03-13T21:16:49.097Z,99.90
2019-03-13T21:21:43.163Z,99.90
2019-03-13T21:26:43.670Z,99.90
2019-03-13T21:31:37.636Z,99.90
2019-03-13T21:36:33.109Z,99.90
2019-03-13T21:41:27.352Z,99.90
2019-03-13T21:46:22.880Z,99.90
2019-03-13T21:51:18.683Z,99.90
2019-03-13T21:56:13.652Z,99.90
2019-03-13T22:01:19.792Z,99.90
2019-03-13T22:06:11.129Z,99.90
2019-03-13T22:11:08.989Z,99.90
2019-03-13T22:16:06.478Z,99.90
2019-03-13T22:21:01.666Z,99.90
2019-03-13T22:26:05.911Z,99.90
2019-03-13T22:30:58.959Z,99.90
2019-03-13T22:35:53.117Z,99.90
2019-03-13T22:40:49.459Z,99.90
2019-03-13T22:45:43.540Z,99.90
2019-03-13T22:50:41.610Z,99.90
2019-03-13T22:55:35.935Z,99.90
2019-03-13T23:00:52.674Z,99.90
2019-03-13T23:05:49.818Z,99.90
2019-03-13T23:10:46.085Z,99.90
2019-03-13T23:15:39.831Z,99.90
2019-03-13T23:20:35.542Z,99.90
2019-03-13T23:25:29.714Z,99.90
2019-03-13T23:30:23.996Z,99.90
2019-03-13T23:35:18.309Z,99.90
2019-03-13T23:40:12.858Z,99.90
2019-03-13T23:45:09.699Z,99.90
2019-03-13T23:50:03.982Z,99.90
2019-03-13T23:54:59.596Z,99.90
2019-03-13T23:59:54.981Z,99.90
